Time;durP1;ratioP1;P1;durP2;ratioP2;P2;SDS_P1;SDS_P2;PMS_P1;PMS_P2;Temp;Humidity;BMP_temperature;BMP_pressure;BME280_temperature;BME280_humidity;BME280_pressure;Samples;Min_cycle;Max_cycle;Signal;HPM_P1;HPM_P2
2022/03/02 00:01:57;;;;;;;23.20;14.07;;;2.60;54.80;;;;;;5112064;28;20047;-77
2022/03/02 00:04:23;;;;;;;24.42;14.18;;;2.60;54.80;;;;;;5112528;28;20464;-76
2022/03/02 00:06:48;;;;;;;24.75;14.55;;;2.60;54.80;;;;;;5114546;28;20073;-77
2022/03/02 00:09:14;;;;;;;27.73;14.27;;;2.60;55.00;;;;;;5116878;27;20019;-77
2022/03/02 00:14:24;;;;;;;23.58;13.43;;;2.50;54.80;;;;;;5116482;28;20031;-77
2022/03/02 00:16:50;;;;;;;23.33;14.77;;;2.50;54.80;;;;;;5116099;28;20016;-78
2022/03/02 00:19:15;;;;;;;26.98;14.40;;;2.50;54.80;;;;;;5116697;28;20016;-77
2022/03/02 00:21:41;;;;;;;24.45;12.88;;;2.50;54.90;;;;;;5116832;28;20057;-77
2022/03/02 00:24:08;;;;;;;22.90;13.02;;;2.50;55.10;;;;;;5115861;28;20103;-77
2022/03/02 00:26:34;;;;;;;21.65;13.10;;;2.50;55.20;;;;;;5116439;28;20031;-77
2022/03/02 00:29:00;;;;;;;24.58;13.07;;;2.40;55.30;;;;;;5115752;28;20110;-77
2022/03/02 00:31:26;;;;;;;21.95;12.93;;;2.40;55.40;;;;;;5116454;28;20076;-77
2022/03/02 00:33:53;;;;;;;25.45;13.07;;;2.40;55.50;;;;;;5115753;28;20504;-77
2022/03/02 00:36:20;;;;;;;26.80;13.38;;;2.40;55.50;;;;;;5116228;28;20031;-77
2022/03/02 00:38:46;;;;;;;23.48;14.13;;;2.40;55.70;;;;;;5116390;28;20016;-76
2022/03/02 00:41:11;;;;;;;27.35;14.25;;;2.30;55.90;;;;;;5115745;28;20349;-77
2022/03/02 00:43:37;;;;;;;24.55;13.25;;;2.20;56.00;;;;;;5116190;28;20111;-77
2022/03/02 00:46:03;;;;;;;28.58;13.32;;;2.20;56.30;;;;;;5115505;28;20063;-77
2022/03/02 00:48:28;;;;;;;24.52;13.23;;;2.20;56.40;;;;;;5116064;28;20043;-77
2022/03/02 00:50:55;;;;;;;23.00;13.18;;;2.20;56.60;;;;;;5115522;27;20072;-78
2022/03/02 00:53:20;;;;;;;22.75;13.13;;;2.10;56.70;;;;;;5116025;28;20026;-77
2022/03/02 00:56:05;;;;;;;25.35;13.52;;;2.10;57.00;;;;;;5116221;28;20122;-78
2022/03/02 00:58:30;;;;;;;24.13;13.40;;;2.10;57.00;;;;;;5114683;28;20020;-76
2022/03/02 01:00:56;;;;;;;22.38;13.57;;;2.00;57.00;;;;;;5114971;28;20046;-77
2022/03/02 01:03:22;;;;;;;22.27;12.55;;;2.00;57.10;;;;;;5115861;28;20360;-77
2022/03/02 01:05:47;;;;;;;22.38;13.35;;;2.00;57.20;;;;;;5115750;28;20031;-77
2022/03/02 01:08:13;;;;;;;20.48;13.32;;;1.90;57.30;;;;;;5113844;28;20034;-76
2022/03/02 01:10:39;;;;;;;25.58;14.02;;;1.90;57.50;;;;;;5115722;28;20019;-77
2022/03/02 01:13:04;;;;;;;23.95;14.38;;;1.90;57.70;;;;;;5115215;28;20368;-78
2022/03/02 01:15:30;;;;;;;24.88;14.25;;;1.80;57.90;;;;;;5115444;28;20372;-78
2022/03/02 01:17:56;;;;;;;24.23;13.93;;;1.80;57.90;;;;;;5114859;28;20034;-78
2022/03/02 01:20:21;;;;;;;24.75;13.32;;;1.80;58.10;;;;;;5115201;28;20016;-77
2022/03/02 01:22:47;;;;;;;23.95;13.40;;;1.70;58.10;;;;;;5115447;28;20020;-77
2022/03/02 01:25:13;;;;;;;28.80;15.15;;;1.70;58.20;;;;;;5114360;27;20024;-77
2022/03/02 01:27:39;;;;;;;25.25;14.00;;;1.70;58.40;;;;;;5115238;28;20034;-77
2022/03/02 01:30:06;;;;;;;25.85;13.68;;;1.70;58.50;;;;;;5114418;28;20020;-76
2022/03/02 01:32:32;;;;;;;22.77;13.73;;;1.70;58.60;;;;;;5114936;28;20024;-77
2022/03/02 01:34:58;;;;;;;26.25;13.38;;;1.60;58.60;;;;;;5114513;28;20023;-77
2022/03/02 01:37:23;;;;;;;23.30;13.15;;;1.60;58.80;;;;;;5115097;28;20023;-77
2022/03/02 01:39:49;;;;;;;25.73;13.40;;;1.60;59.00;;;;;;5115153;28;20333;-77
2022/03/02 01:42:15;;;;;;;27.70;14.02;;;1.50;59.20;;;;;;5113934;28;20533;-77
2022/03/02 01:44:40;;;;;;;27.35;13.90;;;1.50;59.30;;;;;;5113717;28;20116;-77
2022/03/02 01:47:07;;;;;;;24.45;13.68;;;1.50;59.50;;;;;;5114356;28;20127;-77
2022/03/02 01:49:33;;;;;;;25.67;13.77;;;1.50;59.50;;;;;;5113920;28;20027;-77
2022/03/02 01:51:59;;;;;;;28.20;15.05;;;1.50;59.80;;;;;;5114210;28;20019;-77
2022/03/02 01:54:25;;;;;;;26.17;14.73;;;1.40;59.60;;;;;;5114612;28;20055;-77
2022/03/02 01:56:51;;;;;;;24.63;13.88;;;1.40;60.30;;;;;;5114755;28;20027;-77
2022/03/02 01:59:17;;;;;;;23.80;14.20;;;1.40;60.00;;;;;;5114115;28;20335;-77
2022/03/02 02:01:43;;;;;;;24.75;14.23;;;1.40;60.00;;;;;;5114581;28;20047;-77
2022/03/02 02:04:09;;;;;;;22.08;14.00;;;1.40;60.20;;;;;;5113980;28;20098;-77
2022/03/02 02:06:34;;;;;;;25.38;14.27;;;1.40;60.40;;;;;;5114890;28;20516;-77
2022/03/02 02:09:02;;;;;;;32.40;14.32;;;1.40;60.60;;;;;;5113668;28;20376;-77
2022/03/02 02:11:30;;;;;;;24.08;14.27;;;1.40;60.60;;;;;;5114459;28;20027;-77
2022/03/02 02:13:55;;;;;;;22.75;13.43;;;1.40;61.30;;;;;;5114292;28;20486;-77
2022/03/02 02:16:22;;;;;;;25.95;14.23;;;1.30;60.80;;;;;;5113520;28;20023;-77
2022/03/02 02:18:50;;;;;;;24.80;13.95;;;1.30;60.90;;;;;;5114066;28;20376;-76
2022/03/02 02:21:16;;;;;;;22.70;13.80;;;1.30;61.00;;;;;;5112383;28;20055;-76
2022/03/02 02:23:42;;;;;;;25.23;13.68;;;1.30;61.10;;;;;;5114090;28;20023;-77
2022/03/02 02:26:08;;;;;;;25.33;14.07;;;1.30;61.20;;;;;;5113572;28;20367;-77
2022/03/02 02:28:35;;;;;;;24.08;14.77;;;1.30;61.20;;;;;;5113789;28;20496;-77
2022/03/02 02:31:02;;;;;;;24.05;14.57;;;1.20;61.30;;;;;;5113306;28;20080;-77
2022/03/02 02:33:28;;;;;;;27.50;14.43;;;1.20;61.30;;;;;;5112789;28;20024;-76
2022/03/02 02:35:54;;;;;;;25.02;13.75;;;1.20;61.40;;;;;;5113673;28;20039;-77
2022/03/02 02:38:23;;;;;;;25.70;14.15;;;1.20;61.50;;;;;;5113063;28;20072;-77
2022/03/02 02:40:50;;;;;;;22.05;13.85;;;1.20;61.70;;;;;;5113838;28;20020;-76
2022/03/02 02:43:19;;;;;;;25.55;14.20;;;1.20;61.80;;;;;;5112806;28;20035;-75
2022/03/02 02:45:45;;;;;;;25.35;14.57;;;1.20;61.80;;;;;;5112164;28;20035;-77
2022/03/02 02:48:10;;;;;;;25.67;14.48;;;1.20;61.80;;;;;;5113089;28;20026;-77
2022/03/02 02:50:36;;;;;;;25.67;13.93;;;1.20;61.90;;;;;;5113626;28;20035;-77
2022/03/02 02:53:06;;;;;;;23.17;13.98;;;1.20;61.90;;;;;;5112746;28;20456;-77
2022/03/02 02:55:33;;;;;;;23.65;14.18;;;1.10;61.90;;;;;;5113682;28;20372;-77
2022/03/02 02:57:59;;;;;;;21.95;13.55;;;1.20;61.90;;;;;;5113252;28;20080;-77
2022/03/02 03:00:28;;;;;;;25.50;14.20;;;1.10;62.10;;;;;;5113034;28;20019;-77
2022/03/02 03:02:56;;;;;;;24.75;14.75;;;1.10;62.10;;;;;;5113521;28;20015;-76
2022/03/02 03:05:23;;;;;;;24.50;14.02;;;1.10;62.10;;;;;;5112551;28;20373;-77
2022/03/02 03:07:50;;;;;;;27.48;14.60;;;1.10;62.30;;;;;;5113429;28;20031;-75
2022/03/02 03:10:17;;;;;;;25.58;14.27;;;1.10;62.40;;;;;;5112703;28;20114;-77
2022/03/02 03:12:43;;;;;;;28.00;14.98;;;1.10;62.30;;;;;;5113440;28;20073;-77
2022/03/02 03:15:11;;;;;;;24.75;14.50;;;1.10;62.30;;;;;;5112728;28;20030;-77
2022/03/02 03:17:38;;;;;;;26.52;14.45;;;1.10;62.40;;;;;;5113197;28;20019;-77
2022/03/02 03:20:06;;;;;;;23.50;13.05;;;1.10;62.60;;;;;;5112402;28;20026;-77
2022/03/02 03:22:32;;;;;;;25.27;14.07;;;1.10;62.50;;;;;;5113436;28;20103;-77
2022/03/02 03:24:57;;;;;;;21.30;13.13;;;1.20;62.50;;;;;;5113031;28;20456;-77
2022/03/02 03:27:23;;;;;;;23.20;13.82;;;1.20;62.30;;;;;;5112519;28;20371;-75
2022/03/02 03:29:49;;;;;;;25.95;13.70;;;1.20;62.30;;;;;;5112779;28;20027;-77
2022/03/02 03:32:15;;;;;;;24.50;13.95;;;1.20;62.30;;;;;;5112172;28;20024;-77
2022/03/02 03:34:41;;;;;;;25.15;14.35;;;1.20;62.20;;;;;;5113075;28;20053;-77
2022/03/02 03:37:07;;;;;;;24.42;13.48;;;1.20;62.20;;;;;;5111016;28;20072;-77
2022/03/02 03:39:32;;;;;;;21.88;13.68;;;1.20;62.20;;;;;;5112661;28;20020;-77
2022/03/02 03:41:58;;;;;;;25.83;13.32;;;1.20;62.10;;;;;;5112105;28;20031;-77
2022/03/02 03:44:24;;;;;;;23.13;13.50;;;1.20;62.10;;;;;;5111839;28;20036;-76
2022/03/02 03:46:50;;;;;;;25.08;14.82;;;1.30;61.90;;;;;;5112827;28;20050;-76
2022/03/02 03:49:17;;;;;;;20.13;12.85;;;1.30;61.80;;;;;;5112235;28;20019;-77
2022/03/02 03:51:42;;;;;;;24.80;13.70;;;1.30;61.70;;;;;;5112768;28;20022;-76
2022/03/02 03:54:09;;;;;;;25.95;14.45;;;1.30;61.60;;;;;;5111595;28;20032;-77
2022/03/02 03:56:34;;;;;;;26.10;13.32;;;1.30;61.60;;;;;;5113148;28;20106;-77
2022/03/02 03:59:00;;;;;;;22.52;13.25;;;1.30;61.50;;;;;;5112847;28;20055;-76
2022/03/02 04:01:26;;;;;;;24.65;13.60;;;1.30;61.40;;;;;;5112206;28;20019;-77
2022/03/02 04:03:52;;;;;;;23.63;13.07;;;1.40;61.20;;;;;;5112980;28;20024;-76
2022/03/02 04:06:18;;;;;;;22.40;13.10;;;1.40;61.10;;;;;;5112171;28;20035;-76
2022/03/02 04:08:44;;;;;;;22.73;12.90;;;1.40;60.80;;;;;;5112687;28;20019;-76
2022/03/02 04:11:10;;;;;;;24.75;12.32;;;1.40;60.60;;;;;;5111990;28;20368;-76
2022/03/02 04:13:36;;;;;;;26.25;13.10;;;1.40;60.30;;;;;;5112595;28;20080;-75
2022/03/02 04:16:02;;;;;;;24.65;13.45;;;1.40;60.10;;;;;;5111339;28;20028;-77
2022/03/02 04:18:28;;;;;;;26.40;13.05;;;1.40;59.60;;;;;;5112065;28;20034;-77
2022/03/02 04:20:54;;;;;;;24.85;12.20;;;1.50;59.30;;;;;;5112307;28;20019;-77
2022/03/02 04:23:21;;;;;;;26.42;12.63;;;1.50;59.10;;;;;;5111960;28;20031;-77
2022/03/02 04:25:48;;;;;;;21.63;13.30;;;1.50;58.90;;;;;;5112079;28;20040;-77
2022/03/02 04:28:14;;;;;;;24.60;13.32;;;1.50;58.70;;;;;;5110625;28;20413;-77
2022/03/02 04:30:39;;;;;;;23.00;13.00;;;1.50;58.70;;;;;;5112519;28;20020;-77
2022/03/02 04:33:06;;;;;;;22.30;13.05;;;1.50;58.70;;;;;;5112480;28;20212;-76
2022/03/02 04:35:50;;;;;;;23.63;12.50;;;1.50;58.40;;;;;;5112095;28;20030;-77
2022/03/02 04:38:16;;;;;;;23.98;12.05;;;1.60;58.20;;;;;;5110586;28;20027;-77
2022/03/02 04:40:42;;;;;;;20.45;12.07;;;1.60;58.10;;;;;;5112089;28;20360;-76
2022/03/02 04:43:08;;;;;;;29.38;12.32;;;1.70;57.90;;;;;;5112033;28;20205;-76
2022/03/02 04:45:34;;;;;;;24.67;13.40;;;1.60;57.80;;;;;;5112284;28;20023;-77
2022/03/02 04:48:00;;;;;;;22.13;11.80;;;1.70;57.60;;;;;;5112332;28;20445;-76
2022/03/02 04:50:26;;;;;;;27.27;13.50;;;1.70;57.50;;;;;;5111749;28;20058;-76
2022/03/02 04:52:53;;;;;;;27.30;13.20;;;1.70;57.50;;;;;;5114114;28;20045;-76
2022/03/02 04:55:20;;;;;;;23.52;12.73;;;1.70;57.40;;;;;;5115031;28;20067;-76
2022/03/02 04:57:50;;;;;;;24.13;12.80;;;1.70;57.40;;;;;;5115885;28;20064;-76
2022/03/02 05:00:17;;;;;;;26.30;13.05;;;1.70;57.20;;;;;;5115099;27;20023;-76
2022/03/02 05:02:43;;;;;;;25.63;12.70;;;1.70;57.00;;;;;;5114741;28;20076;-76
2022/03/02 05:05:10;;;;;;;23.58;13.40;;;1.70;57.50;;;;;;5115481;28;20031;-76
2022/03/02 05:07:36;;;;;;;23.65;12.85;;;1.60;57.60;;;;;;5114511;28;20027;-76
2022/03/02 05:10:04;;;;;;;24.48;12.32;;;1.60;57.70;;;;;;5114711;28;20437;-76
2022/03/02 05:12:30;;;;;;;25.38;13.07;;;1.60;57.30;;;;;;5114602;28;20024;-76
2022/03/02 05:14:56;;;;;;;24.17;13.35;;;1.60;56.70;;;;;;5115345;28;20026;-76
2022/03/02 05:17:22;;;;;;;23.65;12.73;;;1.60;56.60;;;;;;5114667;28;20068;-75
2022/03/02 05:19:48;;;;;;;24.00;12.80;;;1.60;56.70;;;;;;5115229;28;20020;-76
2022/03/02 05:22:14;;;;;;;23.20;12.20;;;1.60;57.20;;;;;;5114344;28;20020;-76
2022/03/02 05:24:40;;;;;;;24.85;13.43;;;1.60;57.40;;;;;;5115270;28;20149;-76
2022/03/02 05:27:07;;;;;;;24.10;13.57;;;1.50;57.60;;;;;;5115062;27;20050;-76
2022/03/02 05:29:33;;;;;;;25.58;13.60;;;1.50;58.20;;;;;;5111879;28;20035;-75
2022/03/02 05:31:59;;;;;;;27.92;14.65;;;1.50;58.70;;;;;;5114349;28;20100;-76
2022/03/02 05:34:25;;;;;;;26.85;13.63;;;1.40;59.00;;;;;;5110125;28;20379;-76
2022/03/02 05:36:51;;;;;;;26.63;14.30;;;1.40;59.50;;;;;;5115848;28;20024;-76
2022/03/02 05:39:16;;;;;;;29.05;14.70;;;1.40;59.70;;;;;;5117619;28;20031;-76
2022/03/02 05:44:26;;;;;;;31.67;15.43;;;1.30;60.00;;;;;;5118058;28;20200;-76
2022/03/02 05:46:52;;;;;;;27.50;14.32;;;1.30;60.20;;;;;;5113590;28;20020;-76
2022/03/02 05:49:18;;;;;;;25.73;14.75;;;1.20;60.40;;;;;;5114681;28;20356;-77
2022/03/02 05:51:44;;;;;;;31.30;14.30;;;1.20;60.60;;;;;;5117205;28;20413;-77
2022/03/02 05:54:11;;;;;;;30.02;14.80;;;1.20;60.90;;;;;;5114400;28;20087;-76
2022/03/02 05:56:38;;;;;;;27.60;14.30;;;1.10;60.70;;;;;;5113436;28;20019;-76
2022/03/02 05:59:05;;;;;;;30.92;15.00;;;1.10;61.10;;;;;;5114438;28;20463;-76
2022/03/02 06:01:31;;;;;;;25.20;13.95;;;1.00;61.30;;;;;;5114048;28;20047;-76
2022/03/02 06:03:58;;;;;;;28.05;14.63;;;1.00;61.50;;;;;;5113398;28;20082;-77
2022/03/02 06:06:24;;;;;;;28.48;15.40;;;1.00;61.60;;;;;;5113938;28;20027;-75
2022/03/02 06:08:50;;;;;;;36.03;15.00;;;1.00;61.60;;;;;;5100536;28;20095;-77
2022/03/02 06:11:16;;;;;;;29.52;15.40;;;1.00;61.60;;;;;;5093259;28;20020;-77
2022/03/02 06:13:42;;;;;;;25.67;14.73;;;1.00;61.90;;;;;;5094043;28;20019;-76
2022/03/02 06:16:08;;;;;;;30.10;15.07;;;0.90;62.00;;;;;;5093776;28;20052;-76
2022/03/02 06:18:35;;;;;;;29.85;15.55;;;0.90;62.20;;;;;;5092794;28;20366;-76
2022/03/02 06:21:02;;;;;;;32.90;15.73;;;0.90;62.20;;;;;;5093780;28;20027;-76
2022/03/02 06:23:29;;;;;;;32.25;16.15;;;1.00;62.20;;;;;;5092884;28;20440;-76
2022/03/02 06:25:55;;;;;;;30.77;16.13;;;1.00;62.10;;;;;;5093576;28;20032;-76
2022/03/02 06:28:21;;;;;;;30.55;14.88;;;1.00;62.80;;;;;;5092826;28;20368;-77
2022/03/02 06:30:48;;;;;;;29.90;15.27;;;1.00;62.50;;;;;;5093932;28;20028;-77
2022/03/02 06:33:18;;;;;;;31.23;15.02;;;1.00;62.60;;;;;;5093364;28;20437;-76
2022/03/02 06:35:47;;;;;;;33.40;15.70;;;1.10;62.40;;;;;;5093575;28;20059;-75
2022/03/02 06:38:13;;;;;;;36.13;15.65;;;1.10;62.30;;;;;;5093548;28;20111;-76
2022/03/02 06:40:41;;;;;;;35.53;15.07;;;1.10;62.20;;;;;;5092791;28;20425;-76
2022/03/02 06:43:11;;;;;;;31.52;15.05;;;1.20;62.20;;;;;;5093206;28;20030;-77
2022/03/02 06:46:07;;;;;;;28.55;14.55;;;1.20;62.00;;;;;;5092901;28;20650;-77
2022/03/02 06:48:51;;;;;;;27.35;13.35;;;1.30;61.70;;;;;;5091259;28;20472;-76
2022/03/02 06:51:21;;;;;;;24.15;14.00;;;1.30;61.30;;;;;;5092707;28;20422;-76
2022/03/02 06:53:47;;;;;;;32.35;13.85;;;1.40;61.20;;;;;;5093096;28;20069;-75
2022/03/02 06:56:16;;;;;;;25.48;13.18;;;1.50;60.80;;;;;;5093340;28;20101;-75
2022/03/02 06:59:01;;;;;;;25.52;12.48;;;1.60;59.50;;;;;;5093279;28;20027;-76
2022/03/02 07:01:31;;;;;;;28.02;12.18;;;1.60;57.70;;;;;;5092565;28;20016;-74
2022/03/02 07:04:01;;;;;;;28.88;12.02;;;1.70;56.10;;;;;;5092892;28;20062;-76
2022/03/02 07:06:28;;;;;;;22.70;11.75;;;1.80;55.60;;;;;;5092259;28;20047;-76
2022/03/02 07:08:55;;;;;;;24.33;11.10;;;1.90;55.00;;;;;;5092645;28;20026;-76
2022/03/02 07:11:22;;;;;;;23.02;12.10;;;1.90;54.20;;;;;;5092261;28;20020;-75
2022/03/02 07:13:49;;;;;;;21.83;11.98;;;2.00;54.20;;;;;;5092606;28;20451;-74
2022/03/02 07:16:16;;;;;;;29.15;12.60;;;2.00;54.20;;;;;;5092611;28;20077;-75
2022/03/02 07:18:43;;;;;;;21.48;11.82;;;2.10;53.80;;;;;;5092211;28;20020;-75
2022/03/02 07:21:11;;;;;;;24.35;12.10;;;2.20;53.40;;;;;;5092759;28;20140;-74
2022/03/02 07:23:41;;;;;;;22.88;11.98;;;2.20;53.10;;;;;;5092074;28;20024;-76
2022/03/02 07:26:09;;;;;;;26.33;12.15;;;2.30;52.80;;;;;;5092810;28;20031;-76
2022/03/02 07:28:39;;;;;;;25.48;12.77;;;2.40;52.40;;;;;;5091195;28;20027;-75
2022/03/02 07:31:08;;;;;;;25.38;12.15;;;2.40;51.90;;;;;;5093023;28;20020;-76
2022/03/02 07:33:37;;;;;;;22.90;11.90;;;2.50;52.00;;;;;;5091677;28;20027;-76
2022/03/02 07:36:03;;;;;;;21.85;11.30;;;2.60;51.90;;;;;;5092401;28;20021;-76
2022/03/02 07:38:31;;;;;;;21.90;11.23;;;2.60;52.00;;;;;;5091904;28;20028;-76
2022/03/02 07:40:57;;;;;;;21.80;11.88;;;2.80;51.50;;;;;;5092465;28;20032;-75
2022/03/02 07:43:22;;;;;;;29.98;12.82;;;3.10;51.20;;;;;;5091892;28;20020;-77
2022/03/02 07:45:48;;;;;;;22.63;11.65;;;3.40;50.40;;;;;;5092328;28;20421;-76
2022/03/02 07:48:14;;;;;;;20.10;10.88;;;3.60;50.40;;;;;;5092202;28;20364;-76
2022/03/02 07:50:40;;;;;;;22.67;10.98;;;3.90;49.10;;;;;;5104723;28;20030;-75
2022/03/02 07:53:07;;;;;;;20.35;10.82;;;4.10;46.80;;;;;;5111462;28;20067;-75
2022/03/02 07:55:34;;;;;;;17.63;10.82;;;4.40;46.30;;;;;;5110508;28;20075;-75
2022/03/02 07:58:03;;;;;;;24.30;10.85;;;4.70;45.40;;;;;;5112608;28;20031;-74
2022/03/02 08:00:29;;;;;;;18.40;10.02;;;4.90;45.00;;;;;;5111748;28;20035;-74
2022/03/02 08:02:58;;;;;;;20.45;9.65;;;5.20;44.10;;;;;;5112671;28;20019;-75
2022/03/02 08:05:25;;;;;;;18.70;9.52;;;5.40;42.70;;;;;;5111493;28;20033;-75
2022/03/02 08:07:50;;;;;;;20.23;9.32;;;5.60;41.20;;;;;;5112655;28;20375;-75
2022/03/02 08:10:17;;;;;;;18.77;9.98;;;5.80;40.10;;;;;;5112471;28;20026;-74
2022/03/02 08:12:44;;;;;;;15.10;9.45;;;6.00;40.10;;;;;;5110602;28;20035;-75
2022/03/02 08:15:10;;;;;;;18.10;9.95;;;6.20;40.10;;;;;;5112641;28;20055;-75
2022/03/02 08:17:36;;;;;;;16.83;9.75;;;6.40;39.60;;;;;;5111927;28;20515;-75
2022/03/02 08:20:03;;;;;;;15.27;9.43;;;6.50;39.70;;;;;;5112515;28;20106;-75
2022/03/02 08:22:30;;;;;;;15.15;9.02;;;6.70;39.00;;;;;;5111785;28;20047;-75
2022/03/02 08:25:10;;;;;;;18.25;9.20;;;6.90;38.80;;;;;;5112620;28;20027;-75
2022/03/02 08:27:43;;;;;;;16.95;9.75;;;7.00;37.80;;;;;;5113303;28;20130;-75
2022/03/02 08:30:11;;;;;;;16.70;9.50;;;7.10;37.90;;;;;;5116329;28;20467;-73
2022/03/02 08:32:42;;;;;;;16.70;8.80;;;7.20;38.20;;;;;;5115464;28;20023;-74
2022/03/02 08:35:08;;;;;;;18.48;9.43;;;7.30;38.10;;;;;;5115953;28;20356;-75
2022/03/02 08:37:35;;;;;;;19.48;9.13;;;7.40;38.10;;;;;;5115345;28;20041;-74
2022/03/02 08:40:02;;;;;;;18.02;8.40;;;7.40;35.90;;;;;;5115060;28;20024;-74
2022/03/02 08:42:28;;;;;;;18.88;9.73;;;7.50;35.40;;;;;;5115268;28;20069;-75
2022/03/02 08:44:54;;;;;;;14.40;9.20;;;7.50;35.80;;;;;;5116032;28;20027;-74
2022/03/02 08:47:24;;;;;;;16.38;8.80;;;7.60;35.60;;;;;;5115783;28;20451;-74
2022/03/02 08:49:51;;;;;;;14.13;8.13;;;7.60;35.80;;;;;;5115744;28;20030;-74
2022/03/02 08:52:20;;;;;;;14.82;8.27;;;7.70;35.40;;;;;;5115940;28;20023;-74
2022/03/02 08:54:47;;;;;;;13.50;8.00;;;7.80;34.90;;;;;;5115289;28;20331;-74
2022/03/02 08:57:15;;;;;;;13.90;7.65;;;7.90;35.00;;;;;;5115615;28;20470;-74
2022/03/02 08:59:43;;;;;;;14.02;8.18;;;8.00;34.50;;;;;;5114942;28;20020;-74
2022/03/02 09:02:09;;;;;;;14.73;8.52;;;8.00;34.30;;;;;;5115805;28;20016;-73
2022/03/02 09:04:36;;;;;;;15.98;8.75;;;8.10;34.00;;;;;;5115245;28;20031;-74
2022/03/02 09:07:04;;;;;;;15.82;8.68;;;8.10;33.70;;;;;;5115606;28;20080;-73
2022/03/02 09:09:30;;;;;;;15.50;9.13;;;8.20;34.20;;;;;;5114981;28;20023;-74
2022/03/02 09:11:56;;;;;;;14.98;8.85;;;8.30;34.80;;;;;;5115590;28;20051;-74
2022/03/02 09:14:23;;;;;;;15.63;9.13;;;8.30;33.70;;;;;;5115416;28;20116;-74
2022/03/02 09:16:49;;;;;;;15.52;9.23;;;8.30;33.50;;;;;;5114812;28;20023;-74
2022/03/02 09:19:15;;;;;;;17.20;8.70;;;8.30;33.40;;;;;;5115296;28;20360;-73
2022/03/02 09:21:45;;;;;;;17.35;8.18;;;8.30;33.40;;;;;;5114787;28;20020;-74
2022/03/02 09:24:12;;;;;;;14.68;8.35;;;8.40;33.30;;;;;;5115254;28;20020;-74
2022/03/02 09:26:39;;;;;;;16.77;8.20;;;8.40;33.20;;;;;;5114713;28;20026;-75
2022/03/02 09:29:07;;;;;;;14.27;7.80;;;8.40;33.20;;;;;;5115062;28;20015;-74
2022/03/02 09:31:35;;;;;;;17.58;8.20;;;8.50;33.30;;;;;;5114878;28;20055;-74
2022/03/02 09:34:07;;;;;;;19.42;8.60;;;8.60;33.40;;;;;;5115136;28;20028;-73
2022/03/02 09:36:53;;;;;;;15.18;9.50;;;8.70;33.00;;;;;;5114770;28;20023;-74
2022/03/02 09:39:18;;;;;;;17.92;9.07;;;8.70;32.90;;;;;;5115065;28;20016;-75
2022/03/02 09:42:08;;;;;;;15.05;8.63;;;8.80;33.50;;;;;;5113763;28;20007;-74
2022/03/02 09:44:42;;;;;;;16.30;9.82;;;8.80;33.10;;;;;;5114311;28;20131;-75
2022/03/02 09:47:09;;;;;;;13.98;9.15;;;8.90;32.90;;;;;;5114995;28;20031;-74
2022/03/02 09:49:36;;;;;;;17.67;10.27;;;8.90;33.10;;;;;;5114123;28;20015;-74
2022/03/02 09:52:06;;;;;;;14.80;8.82;;;8.90;33.10;;;;;;5114671;28;20028;-74
2022/03/02 09:54:36;;;;;;;15.27;9.73;;;8.90;32.90;;;;;;5113763;28;20040;-74
2022/03/02 09:57:06;;;;;;;16.53;8.87;;;9.00;33.00;;;;;;5114603;28;20102;-74
2022/03/02 09:59:38;;;;;;;14.73;8.88;;;8.90;32.90;;;;;;5113931;28;20020;-74
2022/03/02 10:02:07;;;;;;;14.25;8.52;;;8.90;33.20;;;;;;5114764;28;20026;-73
2022/03/02 10:04:35;;;;;;;12.38;8.40;;;8.90;32.90;;;;;;5113944;28;20367;-75
2022/03/02 10:10:13;;;;;;;14.60;8.90;;;8.80;32.60;;;;;;5113206;28;20483;-74
2022/03/02 10:12:40;;;;;;;15.48;9.27;;;8.80;33.00;;;;;;5093085;28;20373;-73
2022/03/02 10:15:12;;;;;;;16.85;8.93;;;8.90;33.20;;;;;;5093665;28;20077;-74
2022/03/02 10:17:41;;;;;;;18.67;9.20;;;8.90;33.70;;;;;;5093181;28;20050;-74
2022/03/02 10:20:11;;;;;;;15.77;8.90;;;9.00;33.80;;;;;;5093767;28;20034;-73
2022/03/02 10:22:39;;;;;;;15.50;9.55;;;9.00;32.70;;;;;;5093228;28;20018;-75
2022/03/02 10:25:11;;;;;;;17.50;9.95;;;9.10;33.20;;;;;;5093651;28;20093;-74
2022/03/02 10:28:02;;;;;;;15.07;9.90;;;9.10;33.20;;;;;;5093286;28;20028;-75
2022/03/02 10:30:38;;;;;;;17.05;8.95;;;9.00;33.10;;;;;;5093835;28;20019;-74
2022/03/02 10:33:25;;;;;;;17.38;10.30;;;9.10;33.50;;;;;;5093686;28;20024;-75
2022/03/02 10:35:59;;;;;;;18.23;10.45;;;8.90;33.80;;;;;;5092732;28;20035;-75
2022/03/02 10:38:39;;;;;;;16.92;10.05;;;8.80;34.30;;;;;;5093688;28;20031;-74
2022/03/02 10:41:08;;;;;;;17.00;9.27;;;8.70;34.80;;;;;;5093539;28;20368;-74
2022/03/02 10:43:40;;;;;;;15.00;9.10;;;8.70;33.90;;;;;;5093275;28;20020;-76
2022/03/02 10:46:09;;;;;;;18.63;8.98;;;8.70;34.60;;;;;;5093258;28;20444;-74
2022/03/02 10:48:48;;;;;;;16.27;9.68;;;8.70;34.50;;;;;;5092516;28;20445;-75
2022/03/02 10:51:15;;;;;;;15.77;10.02;;;8.70;34.20;;;;;;5092973;28;20352;-74
2022/03/02 10:53:44;;;;;;;17.42;10.02;;;8.80;34.40;;;;;;5092475;28;20099;-74
2022/03/02 10:56:10;;;;;;;14.75;9.35;;;8.80;34.00;;;;;;5093322;28;20035;-73
2022/03/02 10:58:39;;;;;;;15.13;9.43;;;8.90;33.90;;;;;;5092409;28;20541;-74
2022/03/02 11:01:04;;;;;;;14.45;9.70;;;8.80;33.10;;;;;;5092966;28;20029;-73
2022/03/02 11:03:39;;;;;;;16.63;10.82;;;8.90;33.50;;;;;;5093028;28;20020;-74
2022/03/02 11:06:06;;;;;;;17.70;10.05;;;9.00;34.30;;;;;;5093205;28;20032;-74
2022/03/02 11:08:35;;;;;;;17.33;10.82;;;9.00;33.50;;;;;;5092747;28;20020;-74
2022/03/02 11:11:02;;;;;;;15.55;10.18;;;9.00;33.60;;;;;;5093104;28;20016;-74
2022/03/02 11:13:28;;;;;;;13.65;9.20;;;9.10;33.90;;;;;;5091491;28;20054;-73
2022/03/02 11:15:56;;;;;;;16.17;10.15;;;9.10;34.30;;;;;;5091730;28;20036;-73
2022/03/02 11:18:34;;;;;;;19.08;10.40;;;9.20;34.50;;;;;;5092386;28;20031;-73
2022/03/02 11:21:14;;;;;;;15.82;10.27;;;9.20;34.80;;;;;;5092042;28;20016;-74
2022/03/02 11:23:51;;;;;;;15.52;10.45;;;9.20;34.00;;;;;;5091958;28;20444;-74
2022/03/02 11:26:29;;;;;;;19.05;10.13;;;9.20;33.90;;;;;;5092670;28;20028;-74
2022/03/02 11:28:59;;;;;;;19.63;9.93;;;9.20;34.30;;;;;;5091922;28;20028;-74
2022/03/02 11:31:31;;;;;;;17.42;9.23;;;9.30;34.10;;;;;;5092550;28;20020;-75
2022/03/02 11:34:17;;;;;;;16.55;8.77;;;9.30;33.20;;;;;;5092041;28;20314;-73
2022/03/02 11:36:46;;;;;;;15.43;9.52;;;9.30;33.40;;;;;;5091953;28;20016;-74
2022/03/02 11:39:14;;;;;;;14.88;9.52;;;9.30;33.40;;;;;;5092179;28;20064;-74
2022/03/02 11:41:43;;;;;;;17.10;9.70;;;9.30;34.00;;;;;;5090527;28;20028;-74
2022/03/02 11:44:44;;;;;;;15.20;9.45;;;9.30;34.20;;;;;;5092436;28;20108;-74
2022/03/02 11:47:13;;;;;;;16.30;10.23;;;9.20;33.80;;;;;;5029796;28;20025;-73
2022/03/02 11:49:49;;;;;;;15.90;9.63;;;9.30;33.50;;;;;;5079859;28;20028;-75
2022/03/02 11:52:18;;;;;;;15.07;9.55;;;9.30;33.20;;;;;;5098040;28;20457;-74
2022/03/02 11:54:51;;;;;;;15.63;9.48;;;9.30;32.90;;;;;;5111512;28;20126;-74
2022/03/02 11:57:18;;;;;;;15.13;9.98;;;9.20;32.90;;;;;;5112662;28;20089;-73
2022/03/02 11:59:46;;;;;;;18.50;10.10;;;9.20;32.60;;;;;;5111970;28;20019;-75
2022/03/02 12:02:21;;;;;;;14.52;9.80;;;9.30;32.70;;;;;;5113294;28;20019;-74
2022/03/02 12:04:58;;;;;;;13.98;9.40;;;9.40;32.50;;;;;;5116048;28;20088;-73
2022/03/02 12:07:25;;;;;;;16.35;9.48;;;9.40;32.50;;;;;;5116511;28;20160;-74
2022/03/02 12:09:50;;;;;;;18.70;9.43;;;9.40;31.70;;;;;;5115734;28;20012;-74
2022/03/02 12:12:22;;;;;;;13.65;8.73;;;9.40;31.20;;;;;;5116598;28;20104;-74
2022/03/02 12:15:13;;;;;;;15.68;8.75;;;9.50;31.30;;;;;;5116053;28;20024;-73
2022/03/02 12:17:40;;;;;;;13.00;8.82;;;9.40;31.80;;;;;;5116792;28;20107;-74
2022/03/02 12:20:09;;;;;;;14.80;8.80;;;9.50;30.70;;;;;;5116493;28;20035;-76
2022/03/02 12:22:43;;;;;;;15.32;9.35;;;9.50;31.10;;;;;;5116500;28;20050;-74
2022/03/02 12:25:11;;;;;;;12.65;8.80;;;9.50;31.10;;;;;;5116949;28;20369;-74
2022/03/02 12:27:39;;;;;;;13.93;8.38;;;9.50;30.00;;;;;;5117985;28;20023;-74
2022/03/02 12:30:07;;;;;;;14.48;8.30;;;9.50;30.20;;;;;;5117410;28;20019;-75
2022/03/02 12:32:36;;;;;;;13.05;7.25;;;9.60;29.90;;;;;;5116377;28;20443;-73
2022/03/02 12:35:17;;;;;;;11.82;7.15;;;9.60;29.70;;;;;;5114481;28;20116;-74
2022/03/02 12:37:43;;;;;;;;;;;9.60;28.30;;;;;;5114741;28;20332;-74
2022/03/02 12:40:11;;;;;;;12.75;6.78;;;9.70;28.90;;;;;;5116216;28;19899;-74
2022/03/02 12:42:43;;;;;;;18.67;7.90;;;9.80;28.40;;;;;;5116060;28;20027;-74
2022/03/02 12:45:11;;;;;;;9.90;6.93;;;9.80;28.20;;;;;;5115973;28;20343;-74
2022/03/02 12:50:22;;;;;;;12.40;7.43;;;9.90;27.20;;;;;;5115944;28;20031;-74
2022/03/02 12:52:47;;;;;;;10.85;6.60;;;9.90;26.90;;;;;;5115165;28;20106;-74
2022/03/02 12:55:15;;;;;;;10.27;7.25;;;9.80;27.40;;;;;;5115241;28;20441;-73
2022/03/02 12:57:42;;;;;;;14.88;8.38;;;9.80;27.90;;;;;;5114651;28;20347;-73